Noroton, Connecticut
Current Conditions -  °F | °C
As of 12:56 PM on Saturday 22 Nov 2014 (Local Time) from KHPN Reporting Station
Clear Clear  
Wind Chill: 32°   Ceiling: Unl
Heat Index: 39°   Visibility: 10mi
Dew Point: 10°   Wind: 10mph
Humidity: 30%   Direction: 210°SSW
Pressure: 30.29"   Gusts: NA
Location:  41.0804°N, 73.4823°W
Report Text: KHPN 221756Z 21009KT 10SM CLR 04/M12 A3029 RMK AO2 SLP266 T00391122 10039 21056 58039
Loading
Personal Weather Stations






























Interactive Weather Map New forecast layout! Learn more

10-Day Weather Forecast

Advertisements
Track Severe Weather on mobile